Time;durP1;ratioP1;P1;durP2;ratioP2;P2;SDS_P1;SDS_P2;PMS_P1;PMS_P2;Temp;Humidity;BMP_temperature;BMP_pressure;BME280_temperature;BME280_humidity;BME280_pressure;Samples;Min_cycle;Max_cycle;Signal;HPM_P1;HPM_P2
2021/01/03 00:01:46;;;;;;;10.02;7.88;;;;;;;;;;5093706;28;20731;-65
2021/01/03 00:04:15;;;;;;;11.32;8.43;;;;;;;;;;5093697;28;20199;-65
2021/01/03 00:06:41;;;;;;;13.80;8.90;;;;;;;;;;5093717;28;20700;-64
2021/01/03 00:09:08;;;;;;;14.40;9.25;;;;;;;;;;5092659;28;20202;-64
2021/01/03 00:11:36;;;;;;;10.25;8.60;;;;;;;;;;5093909;28;20322;-64
2021/01/03 00:14:02;;;;;;;12.88;9.52;;;;;;;;;;5093877;28;20198;-64
2021/01/03 00:16:29;;;;;;;14.07;9.85;;;;;;;;;;5094179;28;20224;-65
2021/01/03 00:18:55;;;;;;;14.95;10.60;;;;;;;;;;5093818;28;20203;-65
2021/01/03 00:21:22;;;;;;;16.55;11.23;;;;;;;;;;5094016;28;20195;-65
2021/01/03 00:23:51;;;;;;;17.70;11.90;;;;;;;;;;5094018;28;20291;-65
2021/01/03 00:26:18;;;;;;;14.05;10.85;;;;;;;;;;5093680;28;20555;-65
2021/01/03 00:28:46;;;;;;;13.65;10.52;;;;;;;;;;5092595;28;20199;-65
2021/01/03 00:31:13;;;;;;;16.52;11.23;;;;;;;;;;5093627;28;20217;-66
2021/01/03 00:33:40;;;;;;;15.90;11.40;;;;;;;;;;5092093;28;20231;-66
2021/01/03 00:36:07;;;;;;;18.33;10.60;;;;;;;;;;5093977;28;20660;-63
2021/01/03 00:38:33;;;;;;;13.57;10.32;;;;;;;;;;5093851;28;20195;-66
2021/01/03 00:41:00;;;;;;;18.85;12.43;;;;;;;;;;5093402;28;20191;-66
2021/01/03 00:43:29;;;;;;;20.70;12.85;;;;;;;;;;5093270;28;20215;-66
2021/01/03 00:45:57;;;;;;;24.38;14.68;;;;;;;;;;5093091;28;20286;-63
2021/01/03 00:48:23;;;;;;;21.13;13.05;;;;;;;;;;5092114;28;20241;-63
2021/01/03 00:50:50;;;;;;;14.35;11.20;;;;;;;;;;5092393;28;20207;-63
2021/01/03 00:53:16;;;;;;;16.80;11.68;;;;;;;;;;5093665;28;20557;-63
2021/01/03 00:55:46;;;;;;;18.15;11.77;;;;;;;;;;5093921;28;20203;-63
2021/01/03 00:58:13;;;;;;;14.40;11.00;;;;;;;;;;5093717;28;20286;-63
2021/01/03 01:00:40;;;;;;;19.35;12.18;;;;;;;;;;5092334;28;20204;-63
2021/01/03 01:03:06;;;;;;;16.92;11.73;;;;;;;;;;5093461;28;20697;-64
2021/01/03 01:05:33;;;;;;;15.07;10.30;;;;;;;;;;5093566;28;20535;-64
2021/01/03 01:08:00;;;;;;;21.95;12.82;;;;;;;;;;5093297;28;20221;-64
2021/01/03 01:10:28;;;;;;;21.65;13.27;;;;;;;;;;5096361;28;20545;-64
2021/01/03 01:12:56;;;;;;;16.10;11.30;;;;;;;;;;5097247;28;20202;-64
2021/01/03 01:15:24;;;;;;;20.80;12.55;;;;;;;;;;5097390;28;20207;-64
2021/01/03 01:17:55;;;;;;;21.65;13.32;;;;;;;;;;5095957;28;20286;-64
2021/01/03 01:20:23;;;;;;;22.17;12.25;;;;;;;;;;5095827;28;20673;-64
2021/01/03 01:22:49;;;;;;;22.75;13.10;;;;;;;;;;5096840;28;20218;-64
2021/01/03 01:25:17;;;;;;;20.98;13.35;;;;;;;;;;5097045;28;20195;-65
2021/01/03 01:27:44;;;;;;;21.88;13.38;;;;;;;;;;5096998;28;20196;-64
2021/01/03 01:30:13;;;;;;;21.42;13.02;;;;;;;;;;5096838;28;20199;-64
2021/01/03 01:32:40;;;;;;;17.13;12.00;;;;;;;;;;5096703;28;20213;-65
2021/01/03 01:35:08;;;;;;;18.80;12.55;;;;;;;;;;5096701;28;20203;-65
2021/01/03 01:37:35;;;;;;;20.60;13.07;;;;;;;;;;5096918;28;20209;-65
2021/01/03 01:40:06;;;;;;;17.05;12.50;;;;;;;;;;5096416;28;20587;-65
2021/01/03 01:42:33;;;;;;;18.02;11.25;;;;;;;;;;5096311;28;20231;-65
2021/01/03 01:45:00;;;;;;;17.50;11.52;;;;;;;;;;5096958;28;20191;-66
2021/01/03 01:47:30;;;;;;;18.80;12.73;;;;;;;;;;5096621;28;20322;-66
2021/01/03 01:49:58;;;;;;;19.27;12.38;;;;;;;;;;5096754;28;20210;-66
2021/01/03 01:52:32;;;;;;;20.65;12.68;;;;;;;;;;5096503;28;20563;-66
2021/01/03 01:55:00;;;;;;;20.13;12.57;;;;;;;;;;5096845;28;20611;-66
2021/01/03 01:57:32;;;;;;;19.33;13.38;;;;;;;;;;5096607;28;20269;-66
2021/01/03 02:00:08;;;;;;;18.92;12.80;;;;;;;;;;5096491;28;20176;-66
2021/01/03 02:02:47;;;;;;;20.92;12.95;;;;;;;;;;5096071;28;20260;-66
2021/01/03 02:05:24;;;;;;;21.40;14.13;;;;;;;;;;5096373;28;20584;-66
2021/01/03 02:07:58;;;;;;;19.75;11.93;;;;;;;;;;5096450;28;20191;-66
2021/01/03 02:10:29;;;;;;;20.35;12.45;;;;;;;;;;5096281;28;20267;-66
2021/01/03 02:13:08;;;;;;;18.30;12.23;;;;;;;;;;5096137;28;20191;-66
2021/01/03 02:15:36;;;;;;;20.50;13.32;;;;;;;;;;5096898;28;20184;-66
2021/01/03 02:18:04;;;;;;;38.58;11.77;;;;;;;;;;5095674;28;20202;-66
2021/01/03 02:20:50;;;;;;;21.77;12.82;;;;;;;;;;5096087;28;20202;-66
2021/01/03 02:23:19;;;;;;;20.15;12.52;;;;;;;;;;5095722;28;20219;-66
2021/01/03 02:25:46;;;;;;;18.58;11.25;;;;;;;;;;5095780;28;20187;-66
2021/01/03 02:28:19;;;;;;;19.83;12.90;;;;;;;;;;5096426;28;20195;-66
2021/01/03 02:30:51;;;;;;;20.67;11.82;;;;;;;;;;5095852;28;20202;-66
2021/01/03 02:33:26;;;;;;;22.90;13.32;;;;;;;;;;5095772;28;20207;-66
2021/01/03 02:36:00;;;;;;;19.25;13.60;;;;;;;;;;5095683;28;20187;-66
2021/01/03 02:38:28;;;;;;;25.13;13.32;;;;;;;;;;5095648;28;20215;-66
2021/01/03 02:40:55;;;;;;;19.98;12.55;;;;;;;;;;5095604;28;20201;-66
2021/01/03 02:43:23;;;;;;;21.23;12.63;;;;;;;;;;5096609;28;20748;-66
2021/01/03 02:45:50;;;;;;;18.30;13.30;;;;;;;;;;5095358;28;20196;-66
2021/01/03 02:48:21;;;;;;;17.70;12.45;;;;;;;;;;5095112;28;20255;-66
2021/01/03 02:50:48;;;;;;;24.05;13.52;;;;;;;;;;5094587;28;20278;-66
2021/01/03 02:53:16;;;;;;;18.05;13.05;;;;;;;;;;5095325;28;20199;-66
2021/01/03 02:55:48;;;;;;;16.77;11.95;;;;;;;;;;5095795;28;20211;-66
2021/01/03 02:58:15;;;;;;;22.20;13.07;;;;;;;;;;5095612;28;20643;-66
2021/01/03 03:00:42;;;;;;;21.95;13.48;;;;;;;;;;5095335;28;20264;-66
2021/01/03 03:03:09;;;;;;;16.05;12.43;;;;;;;;;;5095108;28;20223;-66
2021/01/03 03:05:36;;;;;;;20.30;11.75;;;;;;;;;;5093874;28;20225;-66
2021/01/03 03:08:03;;;;;;;19.25;12.98;;;;;;;;;;5094903;28;20198;-66
2021/01/03 03:10:34;;;;;;;17.67;12.00;;;;;;;;;;5095022;28;20228;-66
2021/01/03 03:13:01;;;;;;;17.20;11.00;;;;;;;;;;5094984;28;20195;-66
2021/01/03 03:15:31;;;;;;;17.75;12.70;;;;;;;;;;5094977;28;20623;-66
2021/01/03 03:17:59;;;;;;;18.30;12.00;;;;;;;;;;5095023;28;20199;-66
2021/01/03 03:20:28;;;;;;;17.30;11.30;;;;;;;;;;5095077;28;20262;-66
2021/01/03 03:22:55;;;;;;;20.63;12.38;;;;;;;;;;5094980;28;20207;-66
2021/01/03 03:25:23;;;;;;;16.08;11.75;;;;;;;;;;5094652;28;20191;-66
2021/01/03 03:27:50;;;;;;;15.43;11.43;;;;;;;;;;5093118;28;20203;-66
2021/01/03 03:30:21;;;;;;;16.00;11.40;;;;;;;;;;5094485;28;20199;-66
2021/01/03 03:32:54;;;;;;;14.77;10.93;;;;;;;;;;5094679;28;20184;-66
2021/01/03 03:35:22;;;;;;;19.52;11.20;;;;;;;;;;5094473;28;20207;-66
2021/01/03 03:37:49;;;;;;;18.33;10.63;;;;;;;;;;5094778;28;20203;-67
2021/01/03 03:40:18;;;;;;;18.00;12.40;;;;;;;;;;5094077;28;20286;-67
2021/01/03 03:42:45;;;;;;;18.60;11.05;;;;;;;;;;5094637;28;20215;-67
2021/01/03 03:45:12;;;;;;;17.63;11.30;;;;;;;;;;5092848;28;20207;-67
2021/01/03 03:47:39;;;;;;;17.20;12.05;;;;;;;;;;5094321;28;20288;-67
2021/01/03 03:50:08;;;;;;;21.05;12.50;;;;;;;;;;5094288;28;20252;-67
2021/01/03 03:52:36;;;;;;;15.85;10.77;;;;;;;;;;5092748;28;20195;-67
2021/01/03 03:55:04;;;;;;;15.77;12.13;;;;;;;;;;5093988;28;20203;-67
2021/01/03 03:57:31;;;;;;;15.48;10.75;;;;;;;;;;5093914;28;20202;-64
2021/01/03 03:59:58;;;;;;;16.98;10.77;;;;;;;;;;5093968;28;20195;-67
2021/01/03 04:02:24;;;;;;;15.82;10.90;;;;;;;;;;5093674;28;20200;-65
2021/01/03 04:04:51;;;;;;;20.33;10.77;;;;;;;;;;5093824;28;20689;-66
2021/01/03 04:07:18;;;;;;;17.48;11.93;;;;;;;;;;5092644;28;20218;-65
2021/01/03 04:09:44;;;;;;;15.73;10.25;;;;;;;;;;5094141;28;20274;-65
2021/01/03 04:12:11;;;;;;;15.93;11.35;;;;;;;;;;5093961;28;20191;-65
2021/01/03 04:14:37;;;;;;;17.13;11.30;;;;;;;;;;5092693;28;20195;-66
2021/01/03 04:17:04;;;;;;;15.98;10.95;;;;;;;;;;5093717;28;20188;-66
2021/01/03 04:19:33;;;;;;;15.50;11.32;;;;;;;;;;5093783;28;20200;-66
2021/01/03 04:22:06;;;;;;;16.05;10.73;;;;;;;;;;5093738;28;20202;-66
2021/01/03 04:24:35;;;;;;;18.42;11.38;;;;;;;;;;5093618;28;20234;-66
2021/01/03 04:27:09;;;;;;;22.38;12.32;;;;;;;;;;5092453;28;20289;-66
2021/01/03 04:29:36;;;;;;;14.57;11.20;;;;;;;;;;5093752;28;20599;-66
2021/01/03 04:32:05;;;;;;;14.77;11.50;;;;;;;;;;5093918;28;20521;-66
2021/01/03 04:34:32;;;;;;;13.90;10.32;;;;;;;;;;5093450;28;20195;-66
2021/01/03 04:36:59;;;;;;;14.35;10.48;;;;;;;;;;5093458;28;20203;-66
2021/01/03 04:39:27;;;;;;;14.00;10.88;;;;;;;;;;5093440;28;20187;-66
2021/01/03 04:42:20;;;;;;;13.73;10.40;;;;;;;;;;5093173;28;20204;-66
2021/01/03 04:44:51;;;;;;;16.95;10.25;;;;;;;;;;5092805;28;20223;-66
2021/01/03 04:47:27;;;;;;;14.25;10.35;;;;;;;;;;5097827;28;20227;-65
2021/01/03 04:49:56;;;;;;;15.65;10.70;;;;;;;;;;5097546;28;20199;-65
2021/01/03 04:52:32;;;;;;;14.95;10.63;;;;;;;;;;5096028;28;20638;-66
2021/01/03 04:55:05;;;;;;;18.02;10.70;;;;;;;;;;5097736;28;20186;-66
2021/01/03 04:57:39;;;;;;;13.70;10.93;;;;;;;;;;5097623;28;20184;-66
2021/01/03 05:00:06;;;;;;;14.15;9.88;;;;;;;;;;5097616;28;20224;-66
2021/01/03 05:02:55;;;;;;;14.48;10.90;;;;;;;;;;5097196;28;20320;-66
2021/01/03 05:05:24;;;;;;;12.90;9.20;;;;;;;;;;5096953;28;20646;-66
2021/01/03 05:07:57;;;;;;;15.55;10.13;;;;;;;;;;5097207;28;20196;-66
2021/01/03 05:10:25;;;;;;;13.80;9.80;;;;;;;;;;5097151;28;20203;-66
2021/01/03 05:13:00;;;;;;;12.77;9.07;;;;;;;;;;5097052;28;20191;-66
2021/01/03 05:15:34;;;;;;;11.75;9.32;;;;;;;;;;5097198;28;20228;-65
2021/01/03 05:18:01;;;;;;;16.15;11.20;;;;;;;;;;5096971;28;20191;-66
2021/01/03 05:20:33;;;;;;;13.52;10.60;;;;;;;;;;5097103;28;20191;-66
2021/01/03 05:23:16;;;;;;;13.48;9.23;;;;;;;;;;5095534;28;20589;-66
2021/01/03 05:25:43;;;;;;;12.52;10.70;;;;;;;;;;5095060;28;20199;-66
2021/01/03 05:28:19;;;;;;;14.77;9.82;;;;;;;;;;5096889;28;20203;-66
2021/01/03 05:30:46;;;;;;;11.63;9.73;;;;;;;;;;5097327;28;20183;-66
2021/01/03 05:33:14;;;;;;;13.60;10.90;;;;;;;;;;5095936;28;20237;-66
2021/01/03 05:35:42;;;;;;;13.10;9.68;;;;;;;;;;5096835;28;20567;-66
2021/01/03 05:38:10;;;;;;;14.45;10.75;;;;;;;;;;5097839;28;20570;-66
2021/01/03 05:40:39;;;;;;;15.98;10.98;;;;;;;;;;5097215;28;20198;-66
2021/01/03 05:43:24;;;;;;;13.27;10.20;;;;;;;;;;5097324;28;20678;-66
2021/01/03 05:45:52;;;;;;;13.95;10.02;;;;;;;;;;5097720;28;20555;-66
2021/01/03 05:48:24;;;;;;;15.52;11.18;;;;;;;;;;5097278;28;20239;-66
2021/01/03 05:50:51;;;;;;;15.43;11.90;;;;;;;;;;5079297;28;20200;-66
2021/01/03 05:53:20;;;;;;;15.65;12.30;;;;;;;;;;5097519;28;20199;-66
2021/01/03 05:55:51;;;;;;;16.42;12.10;;;;;;;;;;5096678;28;20195;-66
2021/01/03 05:58:37;;;;;;;15.63;11.73;;;;;;;;;;5097101;28;20199;-66
2021/01/03 06:01:15;;;;;;;15.90;12.50;;;;;;;;;;5098142;28;20194;-66
2021/01/03 06:03:42;;;;;;;19.95;12.55;;;;;;;;;;5097357;28;20234;-66
2021/01/03 06:06:11;;;;;;;16.85;12.20;;;;;;;;;;5097475;28;20232;-66
2021/01/03 06:08:40;;;;;;;14.68;11.50;;;;;;;;;;5096919;28;20560;-66
2021/01/03 06:11:17;;;;;;;18.80;13.38;;;;;;;;;;5096433;28;20207;-66
2021/01/03 06:13:55;;;;;;;18.60;11.90;;;;;;;;;;5096493;28;20532;-66
2021/01/03 06:16:38;;;;;;;18.40;12.95;;;;;;;;;;5096250;28;20522;-66
2021/01/03 06:19:06;;;;;;;16.55;12.77;;;;;;;;;;5096568;28;20219;-66
2021/01/03 06:21:34;;;;;;;16.23;12.75;;;;;;;;;;5096362;28;20195;-66
2021/01/03 06:24:23;;;;;;;18.55;12.38;;;;;;;;;;5096668;28;20231;-66
2021/01/03 06:26:51;;;;;;;18.77;14.00;;;;;;;;;;5096751;28;20184;-66
2021/01/03 06:29:19;;;;;;;21.17;15.50;;;;;;;;;;5095691;28;20650;-66
2021/01/03 06:31:46;;;;;;;19.85;14.35;;;;;;;;;;5096953;28;20191;-66
2021/01/03 06:34:23;;;;;;;21.40;13.30;;;;;;;;;;5096605;28;20221;-66
2021/01/03 06:36:57;;;;;;;21.48;15.52;;;;;;;;;;5096406;28;20655;-66
2021/01/03 06:39:23;;;;;;;22.40;15.50;;;;;;;;;;5096379;28;20666;-66
2021/01/03 06:42:25;;;;;;;23.35;15.55;;;;;;;;;;5095885;28;20203;-65
2021/01/03 06:44:59;;;;;;;21.60;15.15;;;;;;;;;;5064755;28;20231;-66
2021/01/03 06:47:44;;;;;;;20.70;14.55;;;;;;;;;;5096110;28;20238;-65
2021/01/03 06:50:31;;;;;;;23.52;16.13;;;;;;;;;;5096625;28;20210;-66
2021/01/03 06:53:10;;;;;;;20.17;15.10;;;;;;;;;;5086153;28;20199;-66
2021/01/03 06:55:42;;;;;;;26.90;16.73;;;;;;;;;;5096779;28;20209;-66
2021/01/03 06:58:19;;;;;;;21.88;16.40;;;;;;;;;;5096467;28;20643;-66
2021/01/03 07:00:56;;;;;;;25.65;17.50;;;;;;;;;;5096842;28;20199;-66
2021/01/03 07:03:28;;;;;;;23.95;16.98;;;;;;;;;;5096481;28;20218;-66
2021/01/03 07:06:02;;;;;;;23.83;17.13;;;;;;;;;;5096485;28;20217;-66
2021/01/03 07:08:31;;;;;;;27.42;16.90;;;;;;;;;;5096212;28;20190;-66
2021/01/03 07:10:59;;;;;;;27.40;17.05;;;;;;;;;;5096569;28;20175;-66
2021/01/03 07:13:30;;;;;;;27.02;18.50;;;;;;;;;;5096028;28;20199;-66
2021/01/03 07:15:58;;;;;;;23.85;17.27;;;;;;;;;;5095815;28;20556;-66
2021/01/03 07:18:34;;;;;;;26.40;18.42;;;;;;;;;;5096135;28;20233;-66
2021/01/03 07:21:04;;;;;;;25.75;16.83;;;;;;;;;;5095978;28;20201;-66
2021/01/03 07:23:44;;;;;;;29.92;20.05;;;;;;;;;;5096370;28;20207;-66
2021/01/03 07:26:32;;;;;;;25.92;17.77;;;;;;;;;;5096413;28;20207;-66
2021/01/03 07:29:14;;;;;;;31.88;19.13;;;;;;;;;;5096530;28;20206;-66
2021/01/03 07:31:59;;;;;;;23.95;16.25;;;;;;;;;;5096210;28;20615;-66
2021/01/03 07:34:30;;;;;;;26.92;17.85;;;;;;;;;;5095718;28;20635;-66
2021/01/03 07:37:17;;;;;;;34.22;20.30;;;;;;;;;;5095740;28;20210;-66
2021/01/03 07:40:03;;;;;;;35.40;19.98;;;;;;;;;;5095903;28;20191;-66
2021/01/03 07:42:36;;;;;;;30.23;19.63;;;;;;;;;;5096094;28;20199;-66
2021/01/03 07:45:12;;;;;;;26.52;18.60;;;;;;;;;;5096541;28;20221;-66
2021/01/03 07:47:47;;;;;;;28.25;19.50;;;;;;;;;;5095867;28;20234;-66
2021/01/03 07:50:19;;;;;;;31.15;18.83;;;;;;;;;;5096030;28;20175;-66
2021/01/03 07:52:47;;;;;;;30.42;18.83;;;;;;;;;;5095885;28;20194;-66
2021/01/03 07:55:34;;;;;;;31.80;19.98;;;;;;;;;;5095858;28;20183;-66
2021/01/03 07:58:00;;;;;;;27.67;18.33;;;;;;;;;;5096013;28;20203;-66
2021/01/03 08:00:28;;;;;;;25.40;18.00;;;;;;;;;;5095969;28;20205;-66
2021/01/03 08:03:02;;;;;;;30.88;19.83;;;;;;;;;;5094832;28;20195;-66
2021/01/03 08:05:30;;;;;;;34.08;20.83;;;;;;;;;;5094948;28;20202;-66
2021/01/03 08:08:11;;;;;;;29.17;18.85;;;;;;;;;;5093612;28;20209;-66
2021/01/03 08:10:37;;;;;;;35.17;21.23;;;;;;;;;;5094624;28;20183;-66
2021/01/03 08:13:09;;;;;;;29.45;19.65;;;;;;;;;;5094085;28;20191;-66
2021/01/03 08:15:38;;;;;;;31.80;21.20;;;;;;;;;;5094603;28;20278;-66
2021/01/03 08:18:16;;;;;;;33.50;20.63;;;;;;;;;;5094411;28;20195;-66
2021/01/03 08:20:44;;;;;;;31.50;22.55;;;;;;;;;;5095026;28;20201;-66
2021/01/03 08:23:25;;;;;;;31.55;20.27;;;;;;;;;;5094467;28;20560;-66
2021/01/03 08:26:21;;;;;;;33.25;22.73;;;;;;;;;;5095209;28;20199;-66
2021/01/03 08:28:59;;;;;;;38.55;23.73;;;;;;;;;;5082045;28;20206;-66
2021/01/03 08:31:28;;;;;;;37.28;21.17;;;;;;;;;;5094031;28;20209;-66
2021/01/03 08:34:02;;;;;;;29.00;19.15;;;;;;;;;;5094331;28;20187;-67
2021/01/03 08:36:30;;;;;;;30.15;19.65;;;;;;;;;;5094465;28;20195;-67
2021/01/03 08:39:15;;;;;;;29.25;19.70;;;;;;;;;;5094992;28;20643;-66
2021/01/03 08:41:54;;;;;;;32.58;19.55;;;;;;;;;;5094964;28;20244;-66
2021/01/03 08:44:23;;;;;;;40.33;27.17;;;;;;;;;;5095313;28;20253;-66
2021/01/03 08:47:04;;;;;;;34.47;22.55;;;;;;;;;;5095105;28;20225;-67
2021/01/03 08:49:31;;;;;;;36.08;25.13;;;;;;;;;;5095706;28;20217;-66
2021/01/03 08:52:20;;;;;;;34.95;24.60;;;;;;;;;;5095210;28;20192;-66
2021/01/03 08:55:02;;;;;;;32.10;21.77;;;;;;;;;;5087707;28;20211;-66
2021/01/03 08:57:31;;;;;;;59.60;37.15;;;;;;;;;;5094739;28;20172;-66
2021/01/03 08:59:57;;;;;;;67.35;42.22;;;;;;;;;;5094672;28;20195;-66
2021/01/03 09:02:25;;;;;;;45.17;29.77;;;;;;;;;;5094752;28;20193;-66
2021/01/03 09:04:55;;;;;;;41.90;27.02;;;;;;;;;;5094593;28;20239;-66
2021/01/03 09:07:22;;;;;;;46.22;29.55;;;;;;;;;;5086790;28;20206;-67
2021/01/03 09:09:49;;;;;;;33.30;21.30;;;;;;;;;;5091056;28;20635;-66
2021/01/03 09:12:16;;;;;;;30.50;20.27;;;;;;;;;;5094187;28;20195;-66
2021/01/03 09:14:49;;;;;;;30.13;20.85;;;;;;;;;;5092335;28;20191;-66
2021/01/03 09:17:20;;;;;;;35.00;22.50;;;;;;;;;;5093378;28;20200;-66
2021/01/03 09:19:49;;;;;;;33.90;22.83;;;;;;;;;;5093278;28;20191;-66
2021/01/03 09:22:23;;;;;;;30.75;19.95;;;;;;;;;;5093150;28;20198;-66
2021/01/03 09:24:57;;;;;;;29.80;20.50;;;;;;;;;;5092777;28;20647;-67
2021/01/03 09:27:26;;;;;;;34.63;22.00;;;;;;;;;;5092292;28;20669;-66
2021/01/03 09:30:05;;;;;;;38.65;23.83;;;;;;;;;;5094141;28;20287;-66
2021/01/03 09:32:32;;;;;;;35.03;24.13;;;;;;;;;;5096911;28;20195;-66
2021/01/03 09:34:59;;;;;;;33.28;22.17;;;;;;;;;;5098531;28;20628;-66
2021/01/03 09:37:27;;;;;;;33.58;22.85;;;;;;;;;;5098006;28;20194;-66
2021/01/03 09:40:30;;;;;;;36.08;23.08;;;;;;;;;;5097172;28;20535;-66
2021/01/03 09:43:15;;;;;;;31.70;22.45;;;;;;;;;;5035289;28;20207;-66
2021/01/03 09:46:05;;;;;;;31.40;20.67;;;;;;;;;;5093489;28;20207;-67
2021/01/03 09:48:37;;;;;;;33.22;22.42;;;;;;;;;;5089463;28;20243;-66
2021/01/03 09:51:10;;;;;;;34.58;22.38;;;;;;;;;;5097219;28;20698;-66
2021/01/03 09:53:39;;;;;;;31.85;22.10;;;;;;;;;;5097513;28;20175;-66
2021/01/03 09:56:42;;;;;;;35.30;22.05;;;;;;;;;;5097337;28;20184;-66
2021/01/03 09:59:16;;;;;;;50.33;29.45;;;;;;;;;;5035130;28;20193;-66
2021/01/03 10:01:44;;;;;;;52.90;31.05;;;;;;;;;;5087626;28;20268;-66
2021/01/03 10:04:25;;;;;;;44.22;28.70;;;;;;;;;;5103434;28;20212;-67
2021/01/03 10:06:55;;;;;;;40.03;27.10;;;;;;;;;;5116523;28;20634;-67
2021/01/03 10:09:24;;;;;;;44.47;30.83;;;;;;;;;;5116517;28;20247;-67
2021/01/03 10:11:52;;;;;;;45.20;29.23;;;;;;;;;;5116402;28;20656;-67
2021/01/03 10:14:36;;;;;;;40.38;27.10;;;;;;;;;;5116027;28;20293;-67
2021/01/03 10:17:15;;;;;;;34.28;24.20;;;;;;;;;;5104673;28;20222;-67
2021/01/03 10:19:41;;;;;;;38.30;24.75;;;;;;;;;;5114940;28;20562;-66
2021/01/03 10:22:43;;;;;;;39.50;26.65;;;;;;;;;;5116418;28;20270;-66
2021/01/03 10:25:12;;;;;;;48.00;28.35;;;;;;;;;;5081623;28;20276;-66
2021/01/03 10:27:41;;;;;;;28.48;20.10;;;;;;;;;;5116303;28;20191;-66
2021/01/03 10:30:16;;;;;;;32.47;23.13;;;;;;;;;;5107385;28;20561;-66
2021/01/03 10:32:43;;;;;;;38.88;28.40;;;;;;;;;;5110650;28;20575;-66
2021/01/03 10:35:10;;;;;;;33.42;22.65;;;;;;;;;;5115220;28;20195;-66
2021/01/03 10:37:38;;;;;;;38.42;27.23;;;;;;;;;;5114292;28;20226;-66
2021/01/03 10:40:05;;;;;;;32.88;23.55;;;;;;;;;;5115774;28;20538;-67
2021/01/03 10:42:31;;;;;;;38.25;25.30;;;;;;;;;;5115441;28;20205;-66
2021/01/03 10:44:58;;;;;;;37.38;24.60;;;;;;;;;;5115204;28;20227;-67
2021/01/03 10:47:25;;;;;;;35.45;22.60;;;;;;;;;;5114843;28;20233;-66
2021/01/03 10:49:53;;;;;;;35.22;25.30;;;;;;;;;;5114329;28;20619;-66
2021/01/03 10:52:22;;;;;;;37.42;25.02;;;;;;;;;;5102215;28;20187;-66
2021/01/03 10:54:49;;;;;;;36.85;24.48;;;;;;;;;;5115442;28;20323;-67
2021/01/03 10:57:18;;;;;;;32.30;22.55;;;;;;;;;;5115234;28;20225;-67
2021/01/03 10:59:44;;;;;;;37.55;24.17;;;;;;;;;;5115061;28;20699;-67
2021/01/03 11:02:11;;;;;;;40.70;25.35;;;;;;;;;;5111068;28;20207;-67
2021/01/03 11:04:39;;;;;;;34.95;23.77;;;;;;;;;;5094934;28;20268;-67
2021/01/03 11:07:06;;;;;;;32.38;22.38;;;;;;;;;;5095102;28;20188;-67
2021/01/03 11:09:35;;;;;;;37.70;24.05;;;;;;;;;;5094893;28;20208;-67
2021/01/03 11:12:03;;;;;;;32.90;20.88;;;;;;;;;;5094691;28;20650;-67
2021/01/03 11:14:29;;;;;;;42.63;30.02;;;;;;;;;;5094992;28;20199;-67
2021/01/03 11:16:59;;;;;;;37.75;25.95;;;;;;;;;;5094765;28;20231;-67
2021/01/03 11:19:25;;;;;;;31.88;21.98;;;;;;;;;;5095093;28;20654;-67
2021/01/03 11:21:54;;;;;;;33.63;22.63;;;;;;;;;;5095235;28;20202;-67
2021/01/03 11:24:23;;;;;;;36.33;22.55;;;;;;;;;;5094815;28;20215;-66
2021/01/03 11:26:50;;;;;;;36.22;22.92;;;;;;;;;;5094947;28;20191;-67
2021/01/03 11:29:20;;;;;;;30.40;21.60;;;;;;;;;;5094672;28;20202;-67
2021/01/03 11:31:48;;;;;;;33.50;22.40;;;;;;;;;;5094647;28;20302;-67
2021/01/03 11:34:16;;;;;;;33.97;24.02;;;;;;;;;;5094629;28;20206;-67
2021/01/03 11:36:51;;;;;;;34.65;23.58;;;;;;;;;;5094974;28;20527;-66
2021/01/03 11:39:18;;;;;;;35.70;23.27;;;;;;;;;;5094421;28;20289;-67
2021/01/03 11:41:46;;;;;;;36.55;22.88;;;;;;;;;;5092854;28;20204;-67
2021/01/03 11:44:14;;;;;;;35.33;21.73;;;;;;;;;;5094808;28;20234;-66
2021/01/03 11:46:41;;;;;;;34.72;21.92;;;;;;;;;;5095999;28;20537;-67
2021/01/03 11:49:08;;;;;;;35.22;22.75;;;;;;;;;;5095907;28;20223;-67
2021/01/03 11:51:35;;;;;;;31.33;22.63;;;;;;;;;;5095709;28;20549;-67
2021/01/03 11:54:01;;;;;;;37.28;24.17;;;;;;;;;;5093831;28;20203;-67
2021/01/03 11:56:28;;;;;;;38.30;25.02;;;;;;;;;;5094175;28;20207;-66
2021/01/03 11:58:59;;;;;;;39.80;24.73;;;;;;;;;;5108793;28;20198;-67
2021/01/03 12:01:26;;;;;;;42.13;27.80;;;;;;;;;;5114535;28;20211;-67
2021/01/03 12:03:53;;;;;;;41.50;25.60;;;;;;;;;;5113663;28;20221;-67
2021/01/03 12:06:20;;;;;;;40.17;25.33;;;;;;;;;;5113952;28;20661;-67
2021/01/03 12:08:50;;;;;;;36.20;23.15;;;;;;;;;;5113858;28;20199;-67
2021/01/03 12:11:20;;;;;;;34.47;23.35;;;;;;;;;;5113584;28;20410;-67
2021/01/03 12:13:51;;;;;;;35.67;24.50;;;;;;;;;;5113766;28;20612;-67
2021/01/03 12:16:21;;;;;;;37.80;22.80;;;;;;;;;;5113980;28;20214;-67
2021/01/03 12:18:48;;;;;;;32.60;22.42;;;;;;;;;;5113772;28;20201;-67
2021/01/03 12:21:37;;;;;;;33.67;22.58;;;;;;;;;;5113741;28;20186;-67
2021/01/03 12:24:04;;;;;;;27.98;20.13;;;;;;;;;;5113703;28;20232;-67
2021/01/03 12:26:35;;;;;;;35.60;22.27;;;;;;;;;;5113435;28;20190;-67
2021/01/03 12:29:02;;;;;;;33.35;21.75;;;;;;;;;;5113541;28;20634;-67
2021/01/03 12:31:37;;;;;;;30.15;21.05;;;;;;;;;;5109732;28;21921;-67
2021/01/03 12:34:04;;;;;;;31.00;21.00;;;;;;;;;;5093566;28;20195;-66
2021/01/03 12:36:31;;;;;;;29.92;20.15;;;;;;;;;;5109302;28;20202;-66
2021/01/03 12:38:57;;;;;;;28.92;20.27;;;;;;;;;;5113656;28;20191;-66
2021/01/03 12:41:25;;;;;;;29.42;20.23;;;;;;;;;;5113477;28;20191;-67
2021/01/03 12:43:51;;;;;;;32.42;21.33;;;;;;;;;;5109326;28;20562;-68
2021/01/03 12:46:44;;;;;;;36.60;24.23;;;;;;;;;;5102482;28;20195;-68
2021/01/03 12:49:11;;;;;;;36.55;22.33;;;;;;;;;;5110296;28;20226;-68
2021/01/03 12:51:39;;;;;;;36.58;22.35;;;;;;;;;;5111747;28;20195;-69
2021/01/03 12:54:06;;;;;;;37.63;22.88;;;;;;;;;;5112805;28;20202;-67
2021/01/03 12:56:33;;;;;;;28.92;20.48;;;;;;;;;;5107030;28;20593;-67
2021/01/03 12:59:03;;;;;;;32.30;20.50;;;;;;;;;;5102178;28;20191;-66
2021/01/03 13:01:34;;;;;;;34.90;22.05;;;;;;;;;;5112842;28;20285;-68
2021/01/03 13:04:05;;;;;;;36.13;23.05;;;;;;;;;;5112990;28;20221;-66
2021/01/03 13:06:33;;;;;;;37.97;24.35;;;;;;;;;;5116079;28;20697;-66
2021/01/03 13:09:00;;;;;;;37.15;23.17;;;;;;;;;;5110029;28;20629;-66
2021/01/03 13:11:27;;;;;;;31.88;21.35;;;;;;;;;;5097102;28;20278;-66
2021/01/03 13:13:54;;;;;;;32.40;22.40;;;;;;;;;;5098255;28;20187;-66
2021/01/03 13:16:21;;;;;;;27.50;19.83;;;;;;;;;;5097387;28;20191;-66
2021/01/03 13:18:51;;;;;;;31.30;20.95;;;;;;;;;;5096978;28;20219;-66
2021/01/03 13:21:18;;;;;;;32.05;20.55;;;;;;;;;;5096836;28;20207;-66
2021/01/03 13:23:44;;;;;;;39.63;23.52;;;;;;;;;;5096822;28;20199;-66
2021/01/03 13:26:11;;;;;;;41.72;24.52;;;;;;;;;;5096896;28;20221;-66
2021/01/03 13:28:38;;;;;;;37.95;26.15;;;;;;;;;;5083062;28;20204;-66
2021/01/03 13:31:07;;;;;;;34.40;22.77;;;;;;;;;;5115643;28;20201;-66
2021/01/03 13:33:35;;;;;;;33.13;23.67;;;;;;;;;;5104981;28;20195;-66
2021/01/03 13:36:04;;;;;;;35.97;22.70;;;;;;;;;;5114647;28;20642;-66
2021/01/03 13:38:31;;;;;;;33.08;21.13;;;;;;;;;;5106664;28;20207;-66
2021/01/03 13:40:58;;;;;;;35.30;22.52;;;;;;;;;;5112936;28;20207;-66
2021/01/03 13:43:24;;;;;;;33.42;22.13;;;;;;;;;;5116889;28;20642;-66
2021/01/03 13:45:51;;;;;;;35.75;23.02;;;;;;;;;;5116168;28;20263;-66
2021/01/03 13:48:18;;;;;;;29.58;21.38;;;;;;;;;;5116147;28;20227;-66
2021/01/03 13:50:45;;;;;;;35.25;24.42;;;;;;;;;;5107726;28;20192;-66
2021/01/03 13:53:11;;;;;;;35.08;23.35;;;;;;;;;;5110613;28;20187;-66
2021/01/03 13:55:38;;;;;;;39.25;24.50;;;;;;;;;;5115082;28;20634;-66
2021/01/03 13:58:07;;;;;;;41.92;26.27;;;;;;;;;;5115232;28;20707;-66
2021/01/03 14:00:34;;;;;;;50.35;30.85;;;;;;;;;;5116088;28;20189;-66
2021/01/03 14:03:01;;;;;;;40.72;25.13;;;;;;;;;;5107472;28;20271;-66
2021/01/03 14:05:28;;;;;;;35.88;22.70;;;;;;;;;;5110437;28;20229;-66
2021/01/03 14:07:54;;;;;;;36.22;25.67;;;;;;;;;;5114976;28;20221;-66
2021/01/03 14:10:22;;;;;;;38.50;21.67;;;;;;;;;;5095936;28;20191;-65
2021/01/03 14:12:49;;;;;;;40.13;25.38;;;;;;;;;;5093965;28;20233;-65
2021/01/03 14:15:18;;;;;;;38.90;24.58;;;;;;;;;;5095604;28;20215;-66
2021/01/03 14:17:49;;;;;;;33.25;22.15;;;;;;;;;;5095048;28;20179;-66
2021/01/03 14:20:20;;;;;;;37.33;23.98;;;;;;;;;;5095751;28;20593;-65
2021/01/03 14:22:47;;;;;;;35.25;23.38;;;;;;;;;;5095701;28;20195;-65
2021/01/03 14:25:20;;;;;;;37.00;21.77;;;;;;;;;;5095866;28;20218;-65
2021/01/03 14:27:53;;;;;;;36.05;22.80;;;;;;;;;;5095583;28;20256;-66
2021/01/03 14:30:21;;;;;;;36.58;23.58;;;;;;;;;;5095293;28;20653;-66
2021/01/03 14:32:50;;;;;;;35.00;22.92;;;;;;;;;;5095572;28;20199;-66
2021/01/03 14:35:17;;;;;;;36.75;21.23;;;;;;;;;;5095409;28;20213;-66
2021/01/03 14:37:45;;;;;;;30.58;19.75;;;;;;;;;;5095445;28;20195;-66
2021/01/03 14:40:19;;;;;;;35.38;21.63;;;;;;;;;;5094804;28;20199;-66